Time;durP1;ratioP1;P1;durP2;ratioP2;P2;SDS_P1;SDS_P2;PMS_P1;PMS_P2;Temp;Humidity;BMP_temperature;BMP_pressure;BME280_temperature;BME280_humidity;BME280_pressure;Samples;Min_cycle;Max_cycle;Signal;HPM_P1;HPM_P2
2022/09/14 00:01:42;;;;;;;;;;;21.80;85.70;;;;;;4957856;28;20013;-64
2022/09/14 00:04:26;;;;;;;;;;;21.80;85.30;;;;;;4957813;28;19921;-63
2022/09/14 00:06:52;;;;;;;;;;;21.80;84.60;;;;;;4927108;29;19914;-65
2022/09/14 00:09:19;;;;;;;;;;;21.90;84.50;;;;;;4951452;29;19922;-63
2022/09/14 00:11:45;;;;;;;;;;;21.80;84.40;;;;;;4957725;28;19910;-64
2022/09/14 00:14:10;;;;;;;;;;;21.70;85.00;;;;;;4957619;28;19910;-65
2022/09/14 00:16:39;;;;;;;;;;;21.70;85.20;;;;;;4957629;28;19973;-63
2022/09/14 00:19:14;;;;;;;;;;;21.70;84.80;;;;;;4957622;28;20029;-62
2022/09/14 00:21:41;;;;;;;;;;;21.70;85.10;;;;;;4957319;28;19918;-63
2022/09/14 00:24:08;;;;;;;;;;;21.70;85.30;;;;;;4933449;28;20326;-64
2022/09/14 00:26:34;;;;;;;;;;;21.70;85.00;;;;;;4951742;29;19945;-64
2022/09/14 00:29:03;;;;;;;;;;;21.80;84.20;;;;;;4945172;29;20352;-64
2022/09/14 00:31:30;;;;;;;;;;;21.80;83.60;;;;;;4957579;28;19915;-63
2022/09/14 00:33:55;;;;;;;;;;;21.90;83.20;;;;;;4957155;28;20016;-64
2022/09/14 00:36:22;;;;;;;;;;;21.90;83.00;;;;;;4957329;28;19942;-65
2022/09/14 00:38:48;;;;;;;;;;;22.00;82.60;;;;;;4957027;28;20358;-64
2022/09/14 00:41:21;;;;;;;;;;;21.90;82.30;;;;;;4957389;28;19922;-64
2022/09/14 00:43:50;;;;;;;;;;;21.90;82.40;;;;;;4957124;28;19933;-65
2022/09/14 00:46:15;;;;;;;;;;;22.00;81.80;;;;;;4957132;28;19910;-64
2022/09/14 00:48:41;;;;;;;;;;;22.00;81.10;;;;;;4956768;28;19918;-66
2022/09/14 00:51:06;;;;;;;;;;;22.00;80.00;;;;;;4956964;28;19933;-64
2022/09/14 00:53:32;;;;;;;;;;;22.00;79.40;;;;;;4945346;28;19911;-65
2022/09/14 00:55:58;;;;;;;;;;;22.10;77.90;;;;;;4951939;28;19911;-63
2022/09/14 00:58:23;;;;;;;;;;;22.00;78.00;;;;;;4938726;29;19918;-64
2022/09/14 01:00:49;;;;;;;;;;;22.00;77.80;;;;;;4953126;29;19918;-63
2022/09/14 01:03:14;;;;;;;;;;;22.00;77.10;;;;;;4956797;28;19915;-64
2022/09/14 01:05:54;;;;;;;;;;;22.00;77.50;;;;;;4955633;28;19969;-65
2022/09/14 01:08:39;;;;;;;;;;;22.10;77.20;;;;;;4956926;28;20347;-64
2022/09/14 01:11:10;;;;;;;;;;;22.10;76.40;;;;;;4956615;28;20005;-64
2022/09/14 01:13:41;;;;;;;;;;;22.10;75.50;;;;;;4947570;28;19911;-63
2022/09/14 01:16:07;;;;;;;;;;;22.10;75.30;;;;;;4950859;29;19969;-65
2022/09/14 01:18:37;;;;;;;;;;;22.10;74.80;;;;;;4945070;29;19915;-62
2022/09/14 01:21:06;;;;;;;;;;;22.10;74.70;;;;;;4956337;28;19922;-65
2022/09/14 01:23:54;;;;;;;;;;;22.10;74.50;;;;;;4943705;28;19949;-65
2022/09/14 01:26:35;;;;;;;;;;;22.10;74.50;;;;;;4950963;29;19914;-62
2022/09/14 01:29:05;;;;;;;;;;;22.10;74.80;;;;;;4956359;28;19910;-66
2022/09/14 01:31:36;;;;;;;;;;;22.10;74.60;;;;;;4956100;28;19918;-63
2022/09/14 01:34:11;;;;;;;;;;;22.10;74.70;;;;;;4956273;28;19945;-64
2022/09/14 01:36:38;;;;;;;;;;;22.10;74.90;;;;;;4956160;28;20367;-65
2022/09/14 01:39:04;;;;;;;;;;;22.10;74.70;;;;;;4956162;28;19910;-64
2022/09/14 01:41:31;;;;;;;;;;;22.10;74.70;;;;;;4956005;28;20399;-65
2022/09/14 01:44:12;;;;;;;;;;;22.10;74.60;;;;;;4956478;28;19911;-65
2022/09/14 01:46:49;;;;;;;;;;;22.10;74.90;;;;;;4970661;28;20266;-63
2022/09/14 01:49:21;;;;;;;;;;;22.10;75.30;;;;;;4955884;28;19914;-63
2022/09/14 01:51:52;;;;;;;;;;;22.10;75.60;;;;;;4955714;28;19923;-64
2022/09/14 01:54:24;;;;;;;;;;;22.10;75.50;;;;;;4935985;28;19964;-63
2022/09/14 01:56:52;;;;;;;;;;;22.10;75.60;;;;;;4955909;28;19911;-65
2022/09/14 01:59:25;;;;;;;;;;;22.10;75.50;;;;;;4942601;28;19918;-64
2022/09/14 02:01:56;;;;;;;;;;;22.10;75.40;;;;;;4956805;28;20025;-65
2022/09/14 02:04:26;;;;;;;;;;;22.10;75.60;;;;;;4956883;28;19910;-64
2022/09/14 02:06:52;;;;;;;;;;;22.00;76.30;;;;;;4956941;28;20318;-65
2022/09/14 02:09:21;;;;;;;;;;;22.00;76.20;;;;;;4972342;28;19922;-63
2022/09/14 02:11:47;;;;;;;;;;;21.90;77.40;;;;;;4962807;28;19910;-64
2022/09/14 02:14:13;;;;;;;;;;;21.90;77.70;;;;;;4969638;28;19920;-64
2022/09/14 02:16:42;;;;;;;;;;;21.80;77.80;;;;;;4968508;28;19919;-65
2022/09/14 02:19:08;;;;;;;;;;;21.80;78.40;;;;;;4963521;28;19911;-65
2022/09/14 02:21:33;;;;;;;;;;;21.70;79.10;;;;;;4967461;28;20274;-64
2022/09/14 02:24:00;;;;;;;;;;;21.60;79.70;;;;;;4957296;28;19937;-63
2022/09/14 02:26:25;;;;;;;;;;;21.60;79.40;;;;;;4957943;28;19959;-66
2022/09/14 02:28:54;;;;;;;;;;;21.60;80.80;;;;;;4955267;28;20274;-66
2022/09/14 02:31:38;;;;;;;;;;;21.60;80.60;;;;;;4955145;28;19910;-66
2022/09/14 02:34:10;;;;;;;;;;;21.50;81.50;;;;;;4955374;28;19918;-64
2022/09/14 02:36:53;;;;;;;;;;;21.40;81.70;;;;;;4955046;28;19918;-64
2022/09/14 02:39:19;;;;;;;;;;;21.30;81.90;;;;;;4955009;28;19914;-65
2022/09/14 02:41:49;;;;;;;;;;;21.30;82.90;;;;;;4953276;28;19922;-66
2022/09/14 02:44:23;;;;;;;;;;;21.20;83.10;;;;;;4954803;28;19915;-63
2022/09/14 02:46:54;;;;;;;;;;;21.20;83.10;;;;;;4954801;28;19918;-69
2022/09/14 02:49:43;;;;;;;;;;;21.20;83.30;;;;;;4954885;28;20378;-63
2022/09/14 02:52:08;;;;;;;;;;;21.10;83.40;;;;;;4948886;29;20384;-66
2022/09/14 02:54:39;;;;;;;;;;;21.10;83.20;;;;;;4941669;28;19911;-69
2022/09/14 02:57:05;;;;;;;;;;;21.10;83.30;;;;;;4954423;28;19971;-65
2022/09/14 02:59:31;;;;;;;;;;;21.10;83.30;;;;;;4941005;28;19914;-64
2022/09/14 03:01:57;;;;;;;;;;;21.10;83.30;;;;;;4954375;28;19922;-63
2022/09/14 03:04:23;;;;;;;;;;;21.00;83.30;;;;;;4969266;28;20343;-64
2022/09/14 03:06:48;;;;;;;;;;;21.10;83.50;;;;;;4954719;28;19957;-64
2022/09/14 03:09:14;;;;;;;;;;;21.20;82.70;;;;;;4954217;28;20267;-65
2022/09/14 03:11:39;;;;;;;;;;;21.10;82.90;;;;;;4954425;28;20368;-63
2022/09/14 03:14:05;;;;;;;;;;;21.10;83.10;;;;;;4954293;28;19917;-63
2022/09/14 03:16:31;;;;;;;;;;;21.10;82.40;;;;;;4954036;28;19914;-65
2022/09/14 03:18:56;;;;;;;;;;;21.00;83.60;;;;;;4954469;28;19916;-65
2022/09/14 03:21:22;;;;;;;;;;;20.90;84.30;;;;;;4954179;28;19918;-63
2022/09/14 03:23:48;;;;;;;;;;;20.90;84.60;;;;;;4942727;28;19915;-65
2022/09/14 03:26:15;;;;;;;;;;;20.90;85.10;;;;;;4954330;28;19914;-64
2022/09/14 03:28:41;;;;;;;;;;;20.90;84.60;;;;;;4953596;28;19944;-63
2022/09/14 03:31:08;;;;;;;;;;;20.90;84.20;;;;;;4954247;28;19914;-63
2022/09/14 03:33:34;;;;;;;;;;;20.90;84.30;;;;;;4954312;28;19936;-63
2022/09/14 03:35:59;;;;;;;;;;;21.00;84.80;;;;;;4954178;28;20433;-64
2022/09/14 03:38:28;;;;;;;;;;;21.00;84.20;;;;;;4954089;28;19910;-65
2022/09/14 03:40:57;;;;;;;;;;;21.00;84.20;;;;;;4954208;28;20091;-64
2022/09/14 03:43:23;;;;;;;;;;;20.90;84.80;;;;;;4951676;28;19917;-63
2022/09/14 03:45:48;;;;;;;;;;;21.00;85.30;;;;;;4943067;29;20001;-64
2022/09/14 03:48:14;;;;;;;;;;;20.90;85.10;;;;;;4953845;28;20002;-64
2022/09/14 03:50:40;;;;;;;;;;;21.00;84.80;;;;;;4953977;28;20010;-63
2022/09/14 03:53:06;;;;;;;;;;;21.00;84.40;;;;;;4945211;28;19919;-64
2022/09/14 03:55:31;;;;;;;;;;;21.10;83.90;;;;;;4953754;28;19914;-63
2022/09/14 03:57:57;;;;;;;;;;;21.10;83.50;;;;;;4947565;28;19966;-65
2022/09/14 04:00:23;;;;;;;;;;;21.10;84.80;;;;;;4946758;29;20017;-64
2022/09/14 04:02:48;;;;;;;;;;;21.00;84.60;;;;;;4953770;28;20447;-64
2022/09/14 04:05:14;;;;;;;;;;;21.00;85.00;;;;;;4953999;28;19914;-65
2022/09/14 04:07:39;;;;;;;;;;;21.10;84.00;;;;;;4953864;28;19958;-64
2022/09/14 04:10:06;;;;;;;;;;;21.00;84.30;;;;;;4954262;28;20384;-65
2022/09/14 04:12:38;;;;;;;;;;;21.00;84.40;;;;;;4953734;28;19914;-65
2022/09/14 04:15:04;;;;;;;;;;;21.00;83.90;;;;;;4953769;28;19914;-64
2022/09/14 04:17:29;;;;;;;;;;;21.00;83.50;;;;;;4953670;28;20377;-64
2022/09/14 04:19:55;;;;;;;;;;;21.00;83.70;;;;;;4953886;28;19957;-66
2022/09/14 04:22:21;;;;;;;;;;;20.90;85.10;;;;;;4953608;28;19918;-62
2022/09/14 04:24:46;;;;;;;;;;;20.90;83.90;;;;;;4938057;28;19915;-64
2022/09/14 04:27:12;;;;;;;;;;;20.90;84.50;;;;;;4953789;28;19932;-64
2022/09/14 04:29:38;;;;;;;;;;;20.90;83.80;;;;;;4940132;28;19942;-63
2022/09/14 04:32:03;;;;;;;;;;;20.90;84.50;;;;;;4953709;28;19922;-63
2022/09/14 04:34:29;;;;;;;;;;;20.90;84.60;;;;;;4953745;28;19915;-64
2022/09/14 04:36:55;;;;;;;;;;;20.90;84.30;;;;;;4953760;28;19911;-64
2022/09/14 04:39:21;;;;;;;;;;;20.90;84.10;;;;;;4953969;28;20285;-63
2022/09/14 04:41:46;;;;;;;;;;;20.80;83.80;;;;;;4956875;28;19929;-64
2022/09/14 04:44:12;;;;;;;;;;;20.80;83.80;;;;;;4956930;28;19918;-64
2022/09/14 04:46:41;;;;;;;;;;;20.80;84.10;;;;;;4956953;28;19911;-65
2022/09/14 04:49:06;;;;;;;;;;;20.80;84.50;;;;;;4957134;28;19993;-64
2022/09/14 04:51:33;;;;;;;;;;;20.90;84.20;;;;;;4956921;28;20397;-64
2022/09/14 04:53:59;;;;;;;;;;;20.80;83.70;;;;;;4941741;28;19911;-63
2022/09/14 04:56:25;;;;;;;;;;;20.80;83.50;;;;;;4957038;28;19911;-64
2022/09/14 04:58:52;;;;;;;;;;;20.80;83.50;;;;;;4943132;28;20373;-65
2022/09/14 05:01:19;;;;;;;;;;;20.80;83.50;;;;;;4929746;29;19919;-70
2022/09/14 05:03:45;;;;;;;;;;;20.90;84.00;;;;;;4956439;28;20382;-65
2022/09/14 05:06:17;;;;;;;;;;;21.00;84.10;;;;;;4956527;28;19958;-67
2022/09/14 05:08:43;;;;;;;;;;;21.00;83.20;;;;;;4956647;28;19957;-65
2022/09/14 05:11:12;;;;;;;;;;;21.10;82.90;;;;;;4956396;28;19918;-66
2022/09/14 05:13:38;;;;;;;;;;;21.30;82.60;;;;;;4956563;28;19919;-68
2022/09/14 05:16:05;;;;;;;;;;;21.40;81.40;;;;;;4956315;28;20277;-71
2022/09/14 05:18:31;;;;;;;;;;;21.40;81.20;;;;;;4956438;28;20029;-68
2022/09/14 05:20:59;;;;;;;;;;;21.40;81.40;;;;;;4956336;28;20017;-68
2022/09/14 05:23:25;;;;;;;;;;;21.30;81.60;;;;;;4946724;28;19915;-66
2022/09/14 05:25:53;;;;;;;;;;;21.40;81.60;;;;;;4956364;28;19911;-66
2022/09/14 05:28:19;;;;;;;;;;;21.40;81.90;;;;;;4956306;28;19987;-65
2022/09/14 05:30:44;;;;;;;;;;;21.50;81.30;;;;;;4956141;29;19911;-66
2022/09/14 05:33:10;;;;;;;;;;;21.60;80.30;;;;;;4956238;28;20005;-66
2022/09/14 05:35:36;;;;;;;;;;;21.60;79.80;;;;;;4956165;28;19922;-66
2022/09/14 05:38:01;;;;;;;;;;;21.70;80.30;;;;;;4954733;28;19917;-63
2022/09/14 05:40:27;;;;;;;;;;;21.60;80.70;;;;;;4956357;28;19957;-62
2022/09/14 05:42:52;;;;;;;;;;;21.70;79.60;;;;;;4956007;28;19930;-62
2022/09/14 05:45:18;;;;;;;;;;;21.80;79.70;;;;;;4956008;28;19918;-61
2022/09/14 05:47:43;;;;;;;;;;;21.90;79.40;;;;;;4932520;28;19919;-63
2022/09/14 05:50:09;;;;;;;;;;;22.00;79.50;;;;;;4934073;29;20476;-62
2022/09/14 05:52:34;;;;;;;;;;;21.90;79.50;;;;;;4916111;29;19919;-64
2022/09/14 05:55:00;;;;;;;;;;;21.90;78.70;;;;;;4912671;29;19922;-64
2022/09/14 05:57:26;;;;;;;;;;;21.90;79.90;;;;;;4919318;29;20018;-65
2022/09/14 05:59:52;;;;;;;;;;;21.80;80.70;;;;;;4944717;29;19911;-64
2022/09/14 06:02:18;;;;;;;;;;;21.60;79.00;;;;;;4955467;28;19986;-63
2022/09/14 06:04:43;;;;;;;;;;;21.70;81.20;;;;;;4955772;28;20323;-63
2022/09/14 06:07:09;;;;;;;;;;;21.70;81.60;;;;;;4955753;28;19953;-64
2022/09/14 06:09:34;;;;;;;;;;;21.70;80.40;;;;;;4955449;28;19934;-67
2022/09/14 06:12:00;;;;;;;;;;;21.40;81.70;;;;;;4956029;28;19920;-69
2022/09/14 06:14:26;;;;;;;;;;;21.50;82.10;;;;;;4955575;28;19911;-64
2022/09/14 06:16:51;;;;;;;;;;;21.50;82.20;;;;;;4955510;28;19910;-65
2022/09/14 06:19:17;;;;;;;;;;;21.60;82.00;;;;;;4955310;28;19914;-68
2022/09/14 06:21:42;;;;;;;;;;;21.70;82.90;;;;;;4955857;28;19926;-66
2022/09/14 06:24:09;;;;;;;;;;;21.60;82.10;;;;;;4923192;28;19934;-70
2022/09/14 06:26:35;;;;;;;;;;;21.80;82.50;;;;;;4946761;29;20373;-70
2022/09/14 06:29:00;;;;;;;;;;;22.00;81.50;;;;;;4955348;28;19914;-68
2022/09/14 06:31:26;;;;;;;;;;;22.20;81.70;;;;;;4918006;28;19915;-68
2022/09/14 06:33:52;;;;;;;;;;;22.50;82.40;;;;;;4916364;29;20429;-72
2022/09/14 06:36:18;;;;;;;;;;;22.60;80.60;;;;;;4922813;29;19948;-64
2022/09/14 06:38:45;;;;;;;;;;;22.80;80.20;;;;;;4934085;29;19914;-69
2022/09/14 06:41:11;;;;;;;;;;;23.00;79.30;;;;;;4929324;29;19923;-65
2022/09/14 06:43:38;;;;;;;;;;;23.00;78.30;;;;;;4915999;29;19915;-66
2022/09/14 06:46:04;;;;;;;;;;;23.20;77.60;;;;;;4915840;29;19934;-64
2022/09/14 06:48:33;;;;;;;;;;;23.40;76.60;;;;;;4941886;29;19915;-63
2022/09/14 06:50:58;;;;;;;;;;;23.50;76.70;;;;;;4954613;28;20434;-68
2022/09/14 06:53:24;;;;;;;;;;;23.60;76.60;;;;;;4943612;28;20001;-63
2022/09/14 06:55:50;;;;;;;;;;;23.70;76.10;;;;;;4951079;28;19918;-64
2022/09/14 06:58:15;;;;;;;;;;;23.70;75.60;;;;;;4935758;28;19954;-63
2022/09/14 07:00:41;;;;;;;;;;;23.80;76.10;;;;;;4949754;29;19950;-70
2022/09/14 07:03:07;;;;;;;;;;;23.80;76.60;;;;;;4953836;28;19921;-71
2022/09/14 07:05:32;;;;;;;;;;;23.80;75.50;;;;;;4954488;28;19933;-74
2022/09/14 07:07:58;;;;;;;;;;;23.70;76.70;;;;;;4954382;28;20390;-68
2022/09/14 07:10:26;;;;;;;;;;;23.70;76.90;;;;;;4954494;28;19921;-68
2022/09/14 07:12:57;;;;;;;;;;;23.80;76.20;;;;;;4954137;28;20003;-64
2022/09/14 07:15:22;;;;;;;;;;;23.70;76.70;;;;;;4954625;28;20369;-63
2022/09/14 07:17:48;;;;;;;;;;;23.80;76.30;;;;;;4958526;28;19910;-63
2022/09/14 07:20:14;;;;;;;;;;;23.80;76.40;;;;;;4959370;28;19911;-65
2022/09/14 07:22:44;;;;;;;;;;;23.80;76.60;;;;;;4948908;28;19919;-63
2022/09/14 07:25:10;;;;;;;;;;;23.80;77.10;;;;;;4954474;28;19934;-66
2022/09/14 07:27:38;;;;;;;;;;;23.80;76.80;;;;;;4954237;28;19997;-63
2022/09/14 07:30:05;;;;;;;;;;;23.90;77.10;;;;;;4954224;29;19933;-64
2022/09/14 07:32:30;;;;;;;;;;;24.00;76.90;;;;;;4954107;28;19961;-64
2022/09/14 07:34:56;;;;;;;;;;;24.00;77.40;;;;;;4954031;28;19911;-63
2022/09/14 07:37:22;;;;;;;;;;;24.10;76.90;;;;;;4954028;28;19917;-62
2022/09/14 07:39:47;;;;;;;;;;;24.30;76.50;;;;;;4953830;28;20326;-62
2022/09/14 07:42:13;;;;;;;;;;;24.40;75.80;;;;;;4954098;28;20317;-62
2022/09/14 07:44:39;;;;;;;;;;;24.40;76.10;;;;;;4953966;28;19922;-62
2022/09/14 07:47:04;;;;;;;;;;;24.50;75.80;;;;;;4953907;28;19918;-66
2022/09/14 07:49:30;;;;;;;;;;;24.50;76.00;;;;;;4952838;28;19911;-63
2022/09/14 07:51:55;;;;;;;;;;;24.40;76.00;;;;;;4953564;28;19922;-63
2022/09/14 07:54:21;;;;;;;;;;;24.40;76.00;;;;;;4942882;28;19914;-62
2022/09/14 07:56:47;;;;;;;;;;;24.40;76.30;;;;;;4954007;28;19917;-63
2022/09/14 07:59:13;;;;;;;;;;;24.40;76.60;;;;;;4940331;28;20346;-64
2022/09/14 08:01:39;;;;;;;;;;;24.30;76.70;;;;;;4953858;28;19923;-62
2022/09/14 08:04:05;;;;;;;;;;;24.40;77.10;;;;;;4952992;28;19914;-66
2022/09/14 08:06:31;;;;;;;;;;;24.20;77.90;;;;;;4941434;29;20002;-62
2022/09/14 08:08:56;;;;;;;;;;;24.10;77.90;;;;;;4953875;28;20001;-61
2022/09/14 08:11:23;;;;;;;;;;;24.20;78.20;;;;;;4953631;28;19910;-64
2022/09/14 08:13:50;;;;;;;;;;;24.20;77.90;;;;;;4953874;28;20367;-63
2022/09/14 08:16:18;;;;;;;;;;;24.20;78.60;;;;;;4957108;28;19917;-64
2022/09/14 08:18:44;;;;;;;;;;;24.40;78.30;;;;;;4957476;28;20041;-66
2022/09/14 08:21:13;;;;;;;;;;;24.40;77.90;;;;;;4957331;28;19961;-63
2022/09/14 08:23:40;;;;;;;;;;;24.40;77.40;;;;;;4944123;28;19927;-64
2022/09/14 08:26:07;;;;;;;;;;;24.40;77.80;;;;;;4958735;28;19918;-65
2022/09/14 08:28:32;;;;;;;;;;;24.50;77.60;;;;;;4966364;28;19914;-65
2022/09/14 08:31:05;;;;;;;;;;;24.50;77.40;;;;;;4964454;28;19915;-66
2022/09/14 08:33:32;;;;;;;;;;;24.50;77.60;;;;;;4957563;28;19917;-65
2022/09/14 08:35:57;;;;;;;;;;;24.40;77.80;;;;;;4957460;28;20012;-67
2022/09/14 08:38:23;;;;;;;;;;;24.40;77.80;;;;;;4957171;28;20001;-69
2022/09/14 08:40:50;;;;;;;;;;;24.40;78.10;;;;;;4957032;28;20009;-67
2022/09/14 08:43:17;;;;;;;;;;;24.50;77.30;;;;;;4956977;28;19914;-68
2022/09/14 08:45:43;;;;;;;;;;;24.60;77.20;;;;;;4957197;28;19911;-66
2022/09/14 08:48:15;;;;;;;;;;;24.70;77.30;;;;;;4955686;28;19961;-66
2022/09/14 08:50:41;;;;;;;;;;;24.80;76.60;;;;;;4944206;29;19919;-66
2022/09/14 08:53:07;;;;;;;;;;;24.80;76.60;;;;;;4945725;29;19910;-66
2022/09/14 08:55:36;;;;;;;;;;;24.90;76.30;;;;;;4956876;28;19914;-66
2022/09/14 08:58:20;;;;;;;;;;;24.80;75.50;;;;;;4949780;28;19915;-66
2022/09/14 09:00:51;;;;;;;;;;;24.80;75.70;;;;;;4953022;29;19954;-64
2022/09/14 09:03:36;;;;;;;;;;;24.90;75.70;;;;;;4955533;28;19961;-65
2022/09/14 09:06:21;;;;;;;;;;;25.00;76.10;;;;;;4956610;28;20317;-64
2022/09/14 09:08:46;;;;;;;;;;;25.00;75.70;;;;;;4926538;28;19997;-65
2022/09/14 09:11:15;;;;;;;;;;;25.00;75.70;;;;;;4933840;29;20523;-66
2022/09/14 09:13:41;;;;;;;;;;;25.00;76.30;;;;;;4936450;29;20002;-68
2022/09/14 09:16:09;;;;;;;;;;;25.00;76.10;;;;;;4924071;28;19915;-68
2022/09/14 09:18:43;;;;;;;;;;;25.10;76.20;;;;;;4917513;29;19915;-65
2022/09/14 09:21:14;;;;;;;;;;;25.10;75.50;;;;;;4925704;29;19919;-69
2022/09/14 09:23:41;;;;;;;;;;;25.20;75.30;;;;;;4921996;29;19915;-68
2022/09/14 09:26:18;;;;;;;;;;;25.20;75.90;;;;;;4936212;29;19943;-66
2022/09/14 09:28:47;;;;;;;;;;;25.20;75.40;;;;;;4932554;29;20046;-71
2022/09/14 09:31:13;;;;;;;;;;;25.20;75.30;;;;;;4936807;29;20406;-64
2022/09/14 09:33:39;;;;;;;;;;;25.20;75.70;;;;;;4935172;29;19933;-65
2022/09/14 09:36:05;;;;;;;;;;;25.10;75.90;;;;;;4931541;29;20300;-63
2022/09/14 09:38:31;;;;;;;;;;;25.10;75.80;;;;;;4920182;29;19954;-68
2022/09/14 09:40:56;;;;;;;;;;;25.10;76.00;;;;;;4936156;29;20472;-68
2022/09/14 09:43:22;;;;;;;;;;;25.10;76.00;;;;;;4946580;28;19911;-68
2022/09/14 09:45:47;;;;;;;;;;;25.10;76.30;;;;;;4955987;28;19922;-64
2022/09/14 09:48:14;;;;;;;;;;;25.10;76.60;;;;;;4955938;28;19989;-68
2022/09/14 09:50:50;;;;;;;;;;;25.10;76.50;;;;;;4956224;28;19930;-70
2022/09/14 09:53:17;;;;;;;;;;;25.20;76.00;;;;;;4946153;28;19917;-62
2022/09/14 09:55:46;;;;;;;;;;;25.20;75.50;;;;;;4942849;28;19918;-65
2022/09/14 09:58:30;;;;;;;;;;;25.30;75.20;;;;;;4925696;28;20366;-68
2022/09/14 10:01:01;;;;;;;;;;;25.40;75.70;;;;;;4955294;29;19912;-65
2022/09/14 10:03:34;;;;;;;;;;;25.40;76.10;;;;;;4951217;28;19966;-64
2022/09/14 10:06:01;;;;;;;;;;;25.40;75.40;;;;;;4929915;29;19934;-65
2022/09/14 10:08:27;;;;;;;;;;;25.40;74.40;;;;;;4929592;29;20375;-67
2022/09/14 10:10:53;;;;;;;;;;;25.50;74.90;;;;;;4935491;29;20002;-67
2022/09/14 10:13:18;;;;;;;;;;;25.60;74.30;;;;;;4932930;29;19919;-64
2022/09/14 10:15:45;;;;;;;;;;;25.60;74.20;;;;;;4941592;29;19914;-65
2022/09/14 10:18:15;;;;;;;;;;;25.80;73.90;;;;;;4926539;28;19966;-65
2022/09/14 10:20:41;;;;;;;;;;;25.80;75.00;;;;;;4935456;29;19925;-65
2022/09/14 10:23:19;;;;;;;;;;;25.70;73.50;;;;;;4918532;29;19923;-67
2022/09/14 10:25:44;;;;;;;;;;;25.70;72.50;;;;;;4933318;29;19914;-65
2022/09/14 10:28:27;;;;;;;;;;;25.80;73.80;;;;;;4933146;29;20119;-69
2022/09/14 10:31:06;;;;;;;;;;;25.80;73.50;;;;;;4934638;29;19957;-71
2022/09/14 10:33:34;;;;;;;;;;;25.80;73.20;;;;;;4934917;29;20263;-73
2022/09/14 10:36:05;;;;;;;;;;;25.90;75.90;;;;;;4922959;29;19915;-70
2022/09/14 10:38:34;;;;;;;;;;;25.90;75.40;;;;;;4919034;29;19911;-75
2022/09/14 10:41:18;;;;;;;;;;;25.90;73.10;;;;;;4917657;29;19915;-73
2022/09/14 10:43:52;;;;;;;;;;;25.90;73.30;;;;;;4934633;29;19911;-65
2022/09/14 10:46:20;;;;;;;;;;;25.90;72.00;;;;;;4929604;28;20303;-75
2022/09/14 10:48:45;;;;;;;;;;;25.80;74.20;;;;;;4927482;29;19915;-66
2022/09/14 10:51:36;;;;;;;;;;;25.80;72.30;;;;;;4934372;29;19934;-67
2022/09/14 10:54:25;;;;;;;;;;;25.80;72.50;;;;;;4926071;29;19918;-68
2022/09/14 10:56:57;;;;;;;;;;;25.80;73.40;;;;;;4937350;29;19993;-67
2022/09/14 10:59:30;;;;;;;;;;;25.70;74.20;;;;;;4915525;29;19919;-67
2022/09/14 11:02:14;;;;;;;;;;;25.80;74.50;;;;;;4919196;29;19929;-68
2022/09/14 11:04:46;;;;;;;;;;;25.80;73.10;;;;;;4929266;29;19915;-65
2022/09/14 11:07:30;;;;;;;;;;;25.70;72.00;;;;;;4920188;29;19962;-67
2022/09/14 11:10:03;;;;;;;;;;;25.70;72.50;;;;;;4915572;29;19911;-72
2022/09/14 11:12:35;;;;;;;;;;;25.70;72.80;;;;;;4943883;29;19910;-68
2022/09/14 11:15:24;;;;;;;;;;;25.70;72.70;;;;;;4926890;29;19915;-67
2022/09/14 11:18:04;;;;;;;;;;;25.70;70.90;;;;;;4928560;29;19963;-68
2022/09/14 11:20:33;;;;;;;;;;;25.80;71.30;;;;;;4926574;29;19959;-71
2022/09/14 11:23:06;;;;;;;;;;;25.80;70.10;;;;;;4912031;29;19922;-66
2022/09/14 11:25:43;;;;;;;;;;;25.90;70.40;;;;;;4939159;28;20322;-70
2022/09/14 11:28:14;;;;;;;;;;;26.10;68.50;;;;;;4933821;28;19921;-63
2022/09/14 11:30:43;;;;;;;;;;;26.30;68.60;;;;;;4933732;29;19923;-72
2022/09/14 11:33:18;;;;;;;;;;;26.40;66.50;;;;;;4933391;29;19947;-68
2022/09/14 11:35:48;;;;;;;;;;;26.50;67.10;;;;;;4932188;28;19918;-70
2022/09/14 11:38:24;;;;;;;;;;;26.70;64.10;;;;;;4933181;29;19927;-68
2022/09/14 11:40:56;;;;;;;;;;;26.80;64.80;;;;;;4933902;29;19934;-71
2022/09/14 11:43:24;;;;;;;;;;;26.80;63.60;;;;;;4933036;29;19921;-69
2022/09/14 11:46:07;;;;;;;;;;;26.90;63.80;;;;;;4923372;29;19919;-68
2022/09/14 11:48:39;;;;;;;;;;;27.00;63.90;;;;;;4929608;29;19919;-71
2022/09/14 11:51:08;;;;;;;;;;;27.00;61.30;;;;;;4935707;29;19934;-70
2022/09/14 11:53:34;;;;;;;;;;;26.90;60.60;;;;;;4929521;29;20430;-73
2022/09/14 11:56:00;;;;;;;;;;;26.80;61.70;;;;;;4938534;29;19915;-66
2022/09/14 11:58:28;;;;;;;;;;;26.70;62.40;;;;;;4937072;29;20470;-69
2022/09/14 12:01:04;;;;;;;;;;;26.60;60.90;;;;;;4935851;29;19919;-70
2022/09/14 12:04:03;;;;;;;;;;;26.60;61.50;;;;;;4932529;29;19915;-69
2022/09/14 12:06:28;;;;;;;;;;;26.50;60.90;;;;;;4913544;29;20393;-66
2022/09/14 12:09:15;;;;;;;;;;;26.50;60.70;;;;;;4949250;28;19975;-72
2022/09/14 12:11:41;;;;;;;;;;;26.60;60.60;;;;;;4940162;29;19918;-69
2022/09/14 12:14:13;;;;;;;;;;;26.80;60.50;;;;;;4940094;29;19911;-71
2022/09/14 12:16:57;;;;;;;;;;;27.00;60.20;;;;;;4940160;29;19919;-71
2022/09/14 12:19:25;;;;;;;;;;;27.20;59.90;;;;;;4940957;29;20004;-72
2022/09/14 12:21:51;;;;;;;;;;;27.40;59.70;;;;;;4947208;29;19929;-75
2022/09/14 12:24:20;;;;;;;;;;;27.50;59.00;;;;;;4936269;29;19915;-75
2022/09/14 12:26:46;;;;;;;;;;;27.50;58.60;;;;;;4940914;29;19915;-75
2022/09/14 12:29:33;;;;;;;;;;;27.40;59.40;;;;;;4939220;29;19958;-75
2022/09/14 12:32:00;;;;;;;;;;;27.50;59.40;;;;;;4939297;28;19915;-75
2022/09/14 12:34:26;;;;;;;;;;;27.60;59.70;;;;;;4939441;29;20318;-71
2022/09/14 12:36:52;;;;;;;;;;;27.70;58.80;;;;;;4940200;29;19922;-71
2022/09/14 12:39:18;;;;;;;;;;;27.80;58.80;;;;;;4925535;29;19919;-69
2022/09/14 12:41:47;;;;;;;;;;;27.60;58.90;;;;;;4932873;28;19970;-73
2022/09/14 12:44:31;;;;;;;;;;;27.50;59.50;;;;;;4930355;29;19921;-70
2022/09/14 12:46:57;;;;;;;;;;;27.50;59.40;;;;;;4930665;28;19922;-68
2022/09/14 12:49:27;;;;;;;;;;;27.50;60.10;;;;;;4922627;29;20294;-69
2022/09/14 12:51:53;;;;;;;;;;;27.40;59.60;;;;;;4923364;29;19924;-69
2022/09/14 12:54:22;;;;;;;;;;;27.40;60.00;;;;;;4935858;28;20070;-71
2022/09/14 12:56:50;;;;;;;;;;;27.30;59.80;;;;;;4939900;29;19911;-70
2022/09/14 12:59:22;;;;;;;;;;;27.20;60.40;;;;;;4940085;29;19918;-73
2022/09/14 13:01:51;;;;;;;;;;;27.20;61.20;;;;;;4946121;29;19927;-64
2022/09/14 13:04:31;;;;;;;;;;;27.10;60.90;;;;;;4955087;28;20351;-67
2022/09/14 13:06:59;;;;;;;;;;;27.10;60.90;;;;;;4946150;29;19914;-64
2022/09/14 13:09:25;;;;;;;;;;;27.10;61.10;;;;;;4956707;28;20316;-66
2022/09/14 13:11:54;;;;;;;;;;;27.10;61.30;;;;;;4956768;28;19910;-66
2022/09/14 13:14:21;;;;;;;;;;;27.00;61.20;;;;;;4956703;28;19918;-64
2022/09/14 13:16:48;;;;;;;;;;;26.90;61.00;;;;;;4956776;28;19917;-68
2022/09/14 13:19:32;;;;;;;;;;;27.00;61.10;;;;;;4956555;28;19986;-71
2022/09/14 13:21:59;;;;;;;;;;;27.20;60.50;;;;;;4956476;28;19919;-72
2022/09/14 13:24:27;;;;;;;;;;;27.20;59.80;;;;;;4947668;28;20656;-69
2022/09/14 13:26:58;;;;;;;;;;;27.40;60.30;;;;;;4956435;28;19934;-69
2022/09/14 13:29:25;;;;;;;;;;;27.50;60.20;;;;;;4956822;28;19919;-71
2022/09/14 13:31:51;;;;;;;;;;;27.60;59.40;;;;;;4956783;28;19957;-71
2022/09/14 13:34:19;;;;;;;;;;;27.60;59.80;;;;;;4957180;28;19910;-70
2022/09/14 13:36:45;;;;;;;;;;;27.60;59.00;;;;;;4971336;28;19963;-69
2022/09/14 13:39:31;;;;;;;;;;;27.60;59.30;;;;;;4956196;28;20274;-68
2022/09/14 13:41:57;;;;;;;;;;;27.40;58.70;;;;;;4955806;28;19919;-66
2022/09/14 13:44:45;;;;;;;;;;;27.30;58.80;;;;;;4956226;28;19911;-68
2022/09/14 13:47:31;;;;;;;;;;;27.20;60.90;;;;;;4955895;28;19917;-69
2022/09/14 13:49:57;;;;;;;;;;;27.30;62.10;;;;;;4955675;29;19960;-69
2022/09/14 13:52:22;;;;;;;;;;;27.20;63.10;;;;;;4955676;28;20358;-70
2022/09/14 13:54:49;;;;;;;;;;;27.20;60.90;;;;;;4945124;28;19937;-65
2022/09/14 13:57:18;;;;;;;;;;;27.10;63.30;;;;;;4955194;28;19914;-65
2022/09/14 14:00:07;;;;;;;;;;;27.00;62.00;;;;;;4943560;29;19922;-66
2022/09/14 14:02:34;;;;;;;;;;;26.80;61.20;;;;;;4955703;28;19922;-67
2022/09/14 14:05:00;;;;;;;;;;;26.80;63.70;;;;;;4955630;28;20405;-67
2022/09/14 14:07:30;;;;;;;;;;;26.90;64.30;;;;;;4955628;28;19915;-65
2022/09/14 14:09:56;;;;;;;;;;;26.80;62.70;;;;;;4954380;28;19921;-69
2022/09/14 14:12:32;;;;;;;;;;;26.80;64.20;;;;;;4955091;28;20327;-65
2022/09/14 14:15:04;;;;;;;;;;;26.70;64.10;;;;;;4955609;28;19921;-64
2022/09/14 14:17:35;;;;;;;;;;;26.70;64.90;;;;;;4942524;28;19918;-65
2022/09/14 14:20:20;;;;;;;;;;;26.70;64.80;;;;;;4942341;28;19915;-64
2022/09/14 14:22:57;;;;;;;;;;;26.60;65.60;;;;;;4949184;28;19923;-65
2022/09/14 14:25:27;;;;;;;;;;;26.50;67.80;;;;;;4955618;28;19911;-64
2022/09/14 14:27:57;;;;;;;;;;;26.30;69.20;;;;;;4955218;28;19914;-64